createdAt,value
2019-05-26T00:01:59.240Z,9.70
2019-05-26T00:04:29.186Z,9.70
2019-05-26T00:06:59.075Z,9.70
2019-05-26T00:09:28.947Z,9.60
2019-05-26T00:11:58.860Z,9.60
2019-05-26T00:14:28.772Z,9.60
2019-05-26T00:16:58.683Z,9.50
2019-05-26T00:19:28.625Z,9.50
2019-05-26T00:21:58.503Z,9.50
2019-05-26T00:24:28.385Z,9.50
2019-05-26T00:26:58.689Z,9.50
2019-05-26T00:29:28.584Z,9.40
2019-05-26T00:31:58.567Z,9.40
2019-05-26T00:34:28.488Z,9.40
2019-05-26T00:36:58.392Z,9.40
2019-05-26T00:39:28.604Z,9.40
2019-05-26T00:41:58.540Z,9.40
2019-05-26T00:44:30.924Z,9.40
2019-05-26T00:47:00.824Z,9.30
2019-05-26T00:49:30.885Z,9.30
2019-05-26T00:52:00.901Z,9.20
2019-05-26T00:54:30.893Z,9.20
2019-05-26T00:57:01.264Z,9.20
2019-05-26T00:59:31.220Z,9.20
2019-05-26T01:02:01.222Z,9.10
2019-05-26T01:04:31.126Z,9.10
2019-05-26T01:07:01.169Z,9.10
2019-05-26T01:09:31.080Z,9.00
2019-05-26T01:12:03.473Z,9.00
2019-05-26T01:14:33.352Z,9.00
2019-05-26T01:17:03.239Z,8.90
2019-05-26T01:19:33.203Z,8.90
2019-05-26T01:22:03.083Z,8.80
2019-05-26T01:24:33.024Z,8.80
2019-05-26T01:27:03.007Z,8.80
2019-05-26T01:29:32.887Z,8.80
2019-05-26T01:32:02.797Z,8.80
2019-05-26T01:34:32.773Z,8.70
2019-05-26T01:37:03.650Z,8.70
2019-05-26T01:39:36.944Z,8.70
2019-05-26T01:42:06.932Z,8.60
2019-05-26T01:44:36.838Z,8.60
2019-05-26T01:47:06.900Z,8.60
2019-05-26T01:49:36.787Z,8.60
2019-05-26T01:52:06.761Z,8.60
2019-05-26T01:54:40.448Z,8.50
2019-05-26T01:57:08.261Z,8.50
2019-05-26T01:59:38.248Z,8.50
2019-05-26T02:02:08.386Z,8.50
2019-05-26T02:04:38.258Z,8.40
2019-05-26T02:07:08.144Z,8.40
2019-05-26T02:09:38.044Z,8.40
2019-05-26T02:12:08.077Z,8.40
2019-05-26T02:14:38.009Z,8.30
2019-05-26T02:17:08.044Z,8.40
2019-05-26T02:19:37.953Z,8.40
2019-05-26T02:22:08.448Z,8.40
2019-05-26T02:24:38.398Z,8.40
2019-05-26T02:27:11.001Z,8.40
2019-05-26T02:29:41.008Z,8.50
2019-05-26T02:32:11.012Z,8.50
2019-05-26T02:34:40.923Z,8.50
2019-05-26T02:37:10.796Z,8.60
2019-05-26T02:39:40.677Z,8.70
2019-05-26T02:42:10.596Z,8.80
2019-05-26T02:44:40.489Z,8.90
2019-05-26T02:47:10.349Z,8.90
2019-05-26T02:49:40.260Z,9.00
2019-05-26T02:52:10.149Z,9.10
2019-05-26T02:54:40.051Z,9.20
2019-05-26T02:57:10.053Z,9.30
2019-05-26T02:59:40.074Z,9.40
2019-05-26T03:02:09.994Z,9.40
2019-05-26T03:04:41.443Z,9.50
2019-05-26T03:07:13.038Z,9.60
2019-05-26T03:09:45.085Z,9.70
2019-05-26T03:12:17.591Z,9.70
2019-05-26T03:14:50.900Z,9.80
2019-05-26T03:17:23.926Z,9.90
2019-05-26T03:19:56.005Z,9.90
2019-05-26T03:22:29.126Z,10.00
2019-05-26T03:25:01.422Z,10.20
2019-05-26T03:27:31.283Z,10.30
2019-05-26T03:30:01.263Z,10.40
2019-05-26T03:32:31.122Z,10.50
2019-05-26T03:35:01.010Z,10.60
2019-05-26T03:37:30.930Z,10.70
2019-05-26T03:40:00.792Z,10.80
2019-05-26T03:42:30.711Z,10.90
2019-05-26T03:45:00.589Z,11.10
2019-05-26T03:47:30.489Z,11.30
2019-05-26T03:50:00.396Z,11.50
2019-05-26T03:52:30.376Z,11.60
2019-05-26T03:55:00.230Z,11.80
2019-05-26T03:57:30.094Z,12.00
2019-05-26T04:00:00.021Z,12.20
2019-05-26T04:02:29.867Z,12.40
2019-05-26T04:04:59.744Z,12.60
2019-05-26T04:07:29.680Z,12.80
2019-05-26T04:10:05.507Z,13.00
2019-05-26T04:12:31.341Z,13.20
2019-05-26T04:15:01.284Z,13.30
2019-05-26T04:17:31.173Z,13.50
2019-05-26T04:20:01.052Z,13.60
2019-05-26T04:22:30.940Z,13.70
2019-05-26T04:25:00.800Z,13.80
2019-05-26T04:27:30.854Z,13.90
2019-05-26T04:30:00.765Z,14.10
2019-05-26T04:32:30.672Z,14.20
2019-05-26T04:35:00.547Z,14.30
2019-05-26T04:37:30.407Z,14.40
2019-05-26T04:40:00.297Z,14.40
2019-05-26T04:42:30.201Z,14.50
2019-05-26T04:45:00.160Z,14.60
2019-05-26T04:47:30.041Z,14.80
2019-05-26T04:49:59.915Z,15.00
2019-05-26T04:52:29.883Z,15.20
2019-05-26T04:54:59.789Z,15.40
2019-05-26T04:57:29.671Z,15.80
2019-05-26T04:59:59.598Z,16.10
2019-05-26T05:02:29.482Z,16.30
2019-05-26T05:04:59.479Z,16.60
2019-05-26T05:07:29.431Z,16.90
2019-05-26T05:09:59.304Z,17.10
2019-05-26T05:12:29.219Z,17.30
2019-05-26T05:14:59.093Z,17.40
2019-05-26T05:17:28.980Z,17.60
2019-05-26T05:19:58.929Z,17.80
2019-05-26T05:22:28.817Z,17.80
2019-05-26T05:24:59.107Z,17.80
2019-05-26T05:27:29.049Z,17.80
2019-05-26T05:29:58.932Z,17.90
2019-05-26T05:32:32.686Z,18.10
2019-05-26T05:35:00.396Z,18.40
2019-05-26T05:37:30.322Z,18.50
2019-05-26T05:40:00.176Z,18.60
2019-05-26T05:42:30.059Z,18.60
2019-05-26T05:45:02.376Z,18.60
2019-05-26T05:47:32.251Z,18.80
2019-05-26T05:50:02.223Z,18.80
2019-05-26T05:52:32.141Z,18.90
2019-05-26T05:55:02.082Z,18.90
2019-05-26T05:57:32.012Z,18.90
2019-05-26T06:00:02.051Z,18.80
2019-05-26T06:02:31.964Z,18.80
2019-05-26T06:05:01.960Z,18.80
2019-05-26T06:07:31.846Z,18.90
2019-05-26T06:10:01.685Z,19.00
2019-05-26T06:12:31.598Z,19.20
2019-05-26T06:15:01.528Z,19.20
2019-05-26T06:17:31.404Z,19.30
2019-05-26T06:20:05.112Z,19.30
2019-05-26T06:22:35.109Z,19.40
2019-05-26T06:25:05.773Z,19.60
2019-05-26T06:27:35.666Z,19.80
2019-05-26T06:30:07.116Z,20.00
2019-05-26T06:32:37.235Z,20.00
2019-05-26T06:35:07.295Z,20.00
2019-05-26T06:37:37.212Z,19.90
2019-05-26T06:40:08.419Z,19.80
2019-05-26T06:42:38.466Z,19.80
2019-05-26T06:45:08.796Z,19.90
2019-05-26T06:47:41.446Z,19.90
2019-05-26T06:50:11.452Z,19.90
2019-05-26T06:52:41.352Z,19.80
2019-05-26T06:55:11.615Z,19.80
2019-05-26T06:57:41.515Z,19.80
2019-05-26T07:00:11.667Z,19.90
2019-05-26T07:02:44.494Z,19.90
2019-05-26T07:05:18.233Z,19.90
2019-05-26T07:07:46.120Z,19.90
2019-05-26T07:10:16.253Z,19.80
2019-05-26T07:12:46.074Z,19.70
2019-05-26T07:15:16.373Z,19.50
2019-05-26T07:17:48.096Z,19.30
2019-05-26T07:20:19.841Z,18.90
2019-05-26T07:22:49.765Z,18.40
2019-05-26T07:25:20.071Z,18.10
2019-05-26T07:27:50.051Z,17.80
2019-05-26T07:30:23.425Z,17.70
2019-05-26T07:32:51.984Z,17.70
2019-05-26T07:35:21.965Z,18.00
2019-05-26T07:37:51.947Z,18.20
2019-05-26T07:40:21.912Z,18.70
2019-05-26T07:42:51.816Z,19.00
2019-05-26T07:45:21.836Z,19.10
2019-05-26T07:47:51.709Z,19.10
2019-05-26T07:50:21.833Z,19.30
2019-05-26T07:52:51.719Z,19.70
2019-05-26T07:55:21.679Z,20.10
2019-05-26T07:57:51.621Z,20.40
2019-05-26T08:00:22.592Z,20.60
2019-05-26T08:02:52.648Z,20.80
2019-05-26T08:05:22.759Z,21.00
2019-05-26T08:07:52.619Z,21.00
2019-05-26T08:10:22.492Z,21.00
2019-05-26T08:12:52.336Z,20.90
2019-05-26T08:15:22.418Z,20.70
2019-05-26T08:17:52.399Z,20.50
2019-05-26T08:20:24.651Z,20.20
2019-05-26T08:22:54.601Z,20.00
2019-05-26T08:25:24.563Z,19.70
2019-05-26T08:27:54.420Z,19.30
2019-05-26T08:30:24.714Z,19.10
2019-05-26T08:32:54.640Z,19.20
2019-05-26T08:35:24.540Z,19.50
2019-05-26T08:37:54.424Z,20.00
2019-05-26T08:40:24.429Z,20.50
2019-05-26T08:42:54.744Z,20.90
2019-05-26T08:45:25.036Z,21.20
2019-05-26T08:47:56.156Z,21.30
2019-05-26T08:50:26.357Z,21.30
2019-05-26T08:52:56.264Z,21.10
2019-05-26T08:55:26.302Z,20.70
2019-05-26T08:57:56.265Z,20.30
2019-05-26T09:00:26.364Z,20.20
2019-05-26T09:02:56.325Z,20.30
2019-05-26T09:05:27.489Z,20.40
2019-05-26T09:07:57.408Z,20.30
2019-05-26T09:10:27.484Z,20.40
2019-05-26T09:13:01.140Z,20.40
2019-05-26T09:15:28.912Z,20.20
2019-05-26T09:17:59.128Z,20.10
2019-05-26T09:20:29.036Z,20.00
2019-05-26T09:22:58.727Z,19.90
2019-05-26T09:25:28.522Z,19.80
2019-05-26T09:27:58.208Z,19.80
2019-05-26T09:30:28.023Z,19.90
2019-05-26T09:32:57.765Z,20.20
2019-05-26T09:35:27.445Z,20.60
2019-05-26T09:37:57.175Z,20.80
2019-05-26T09:40:27.253Z,21.10
2019-05-26T09:42:56.987Z,21.30
2019-05-26T09:45:26.821Z,21.40
2019-05-26T09:47:56.542Z,21.30
2019-05-26T09:50:26.212Z,21.10
2019-05-26T09:52:56.009Z,20.90
2019-05-26T09:55:25.691Z,20.60
2019-05-26T09:57:55.439Z,20.30
2019-05-26T10:00:27.931Z,20.30
2019-05-26T10:02:57.782Z,20.50
2019-05-26T10:05:27.696Z,20.60
2019-05-26T10:07:57.373Z,20.80
2019-05-26T10:10:27.070Z,20.90
2019-05-26T10:12:56.902Z,21.00
2019-05-26T10:15:29.268Z,21.00
2019-05-26T10:17:58.977Z,20.70
2019-05-26T10:20:28.655Z,20.50
2019-05-26T10:22:58.408Z,20.30
2019-05-26T10:25:28.706Z,20.30
2019-05-26T10:27:58.423Z,20.40
2019-05-26T10:30:28.107Z,20.60
2019-05-26T10:32:58.547Z,20.90
2019-05-26T10:35:28.294Z,21.10
2019-05-26T10:37:58.229Z,21.20
2019-05-26T10:40:27.938Z,21.20
2019-05-26T10:42:57.651Z,21.30
2019-05-26T10:45:27.343Z,21.20
2019-05-26T10:47:57.202Z,21.20
2019-05-26T10:50:26.910Z,21.00
2019-05-26T10:52:56.698Z,21.00
2019-05-26T10:55:26.537Z,20.90
2019-05-26T10:57:56.256Z,20.90
2019-05-26T11:00:26.494Z,21.00
2019-05-26T11:02:56.827Z,21.30
2019-05-26T11:05:26.556Z,21.40
2019-05-26T11:07:56.313Z,21.40
2019-05-26T11:10:26.102Z,21.50
2019-05-26T11:12:55.885Z,21.70
2019-05-26T11:15:25.635Z,21.70
2019-05-26T11:17:55.778Z,21.60
2019-05-26T11:20:25.504Z,21.60
2019-05-26T11:22:55.227Z,21.60
2019-05-26T11:25:24.978Z,21.70
2019-05-26T11:27:54.683Z,21.80
2019-05-26T11:30:25.160Z,21.70
2019-05-26T11:32:54.859Z,21.60
2019-05-26T11:35:24.539Z,21.60
2019-05-26T11:37:54.277Z,21.60
2019-05-26T11:40:24.184Z,21.60
2019-05-26T11:42:53.881Z,21.70
2019-05-26T11:45:23.683Z,21.70
2019-05-26T11:47:53.488Z,21.80
2019-05-26T11:50:23.526Z,21.70
2019-05-26T11:52:53.345Z,21.70
2019-05-26T11:55:23.180Z,22.00
2019-05-26T11:57:52.958Z,22.10
2019-05-26T12:00:23.178Z,22.30
2019-05-26T12:02:53.057Z,22.40
2019-05-26T12:05:22.819Z,22.50
2019-05-26T12:07:54.599Z,22.70
2019-05-26T12:10:24.280Z,22.80
2019-05-26T12:12:57.019Z,22.70
2019-05-26T12:15:26.961Z,22.60
2019-05-26T12:17:56.746Z,22.60
2019-05-26T12:20:26.463Z,22.70
2019-05-26T12:22:59.165Z,22.70
2019-05-26T12:25:28.911Z,22.70
2019-05-26T12:27:58.967Z,22.90
2019-05-26T12:30:29.647Z,22.80
2019-05-26T12:32:59.506Z,22.80
2019-05-26T12:35:48.970Z,22.80
2019-05-26T12:38:18.708Z,22.80
2019-05-26T12:40:48.442Z,23.00
2019-05-26T12:43:18.194Z,23.00
2019-05-26T12:45:47.880Z,23.00
2019-05-26T12:48:17.590Z,22.90
2019-05-26T12:50:47.402Z,22.90
2019-05-26T12:53:17.140Z,22.90
2019-05-26T12:55:46.856Z,22.90
2019-05-26T12:58:20.610Z,22.90
2019-05-26T13:00:54.822Z,22.90
2019-05-26T13:03:22.884Z,22.90
2019-05-26T13:05:52.584Z,22.90
2019-05-26T13:08:22.271Z,22.90
2019-05-26T13:10:52.040Z,23.00
2019-05-26T13:13:21.759Z,23.00
2019-05-26T13:15:51.465Z,23.00
2019-05-26T13:18:21.179Z,23.10
2019-05-26T13:20:50.921Z,23.00
2019-05-26T13:23:21.172Z,23.00
2019-05-26T13:25:50.868Z,22.90
2019-05-26T13:28:20.593Z,22.90
2019-05-26T13:30:50.309Z,22.90
2019-05-26T13:33:20.477Z,23.00
2019-05-26T13:35:50.205Z,23.20
2019-05-26T13:38:19.988Z,23.30
2019-05-26T13:40:50.012Z,23.40
2019-05-26T13:43:19.711Z,23.30
2019-05-26T13:45:49.483Z,23.20
2019-05-26T13:48:19.176Z,23.20
2019-05-26T13:50:48.892Z,23.20
2019-05-26T13:53:18.672Z,23.10
2019-05-26T13:55:48.376Z,23.00
2019-05-26T13:58:18.092Z,22.90
2019-05-26T14:00:47.806Z,22.80
2019-05-26T14:03:17.531Z,22.80
2019-05-26T14:05:47.254Z,22.80
2019-05-26T14:08:16.985Z,22.80
2019-05-26T14:10:46.830Z,22.60
2019-05-26T14:13:16.582Z,22.50
2019-05-26T14:15:46.967Z,22.50
2019-05-26T14:18:18.251Z,22.50
2019-05-26T14:20:48.323Z,22.50
2019-05-26T14:23:18.046Z,22.70
2019-05-26T14:25:47.784Z,22.70
2019-05-26T14:28:17.455Z,22.70
2019-05-26T14:30:47.226Z,22.70
2019-05-26T14:33:16.899Z,22.60
2019-05-26T14:35:46.593Z,22.60
2019-05-26T14:38:16.351Z,22.70
2019-05-26T14:40:48.678Z,22.60
2019-05-26T14:43:18.377Z,22.70
2019-05-26T14:45:53.461Z,22.90
2019-05-26T14:48:19.464Z,23.00
2019-05-26T14:50:49.501Z,23.20
2019-05-26T14:53:19.171Z,23.30
2019-05-26T14:55:48.855Z,23.30
2019-05-26T14:58:18.572Z,23.30
2019-05-26T15:00:48.273Z,23.20
2019-05-26T15:03:18.016Z,23.20
2019-05-26T15:05:47.729Z,23.10
2019-05-26T15:08:17.466Z,23.10
2019-05-26T15:10:47.147Z,23.10
2019-05-26T15:13:16.903Z,23.20
2019-05-26T15:15:46.616Z,23.30
2019-05-26T15:18:16.336Z,23.40
2019-05-26T15:20:46.070Z,23.40
2019-05-26T15:23:15.824Z,23.40
2019-05-26T15:25:45.521Z,23.40
2019-05-26T15:28:15.288Z,23.40
2019-05-26T15:30:45.147Z,23.40
2019-05-26T15:33:14.898Z,23.40
2019-05-26T15:35:45.202Z,23.40
2019-05-26T15:38:15.277Z,23.30
2019-05-26T15:40:45.046Z,23.50
2019-05-26T15:43:14.721Z,23.80
2019-05-26T15:45:50.082Z,24.20
2019-05-26T15:48:29.474Z,24.40
2019-05-26T15:51:06.037Z,24.40
2019-05-26T15:53:47.387Z,24.00
2019-05-26T15:56:22.236Z,23.70
2019-05-26T15:58:56.466Z,23.40
2019-05-26T16:01:31.719Z,23.00
2019-05-26T16:04:05.430Z,22.60
2019-05-26T16:06:39.858Z,22.30
2019-05-26T16:09:14.532Z,22.10
2019-05-26T16:11:44.293Z,21.90
2019-05-26T16:14:13.976Z,21.70
2019-05-26T16:16:43.699Z,21.60
2019-05-26T16:19:16.075Z,21.60
2019-05-26T16:21:45.840Z,21.50
2019-05-26T16:24:15.532Z,21.30
2019-05-26T16:26:45.231Z,21.30
2019-05-26T16:29:14.996Z,21.20
2019-05-26T16:31:44.728Z,21.10
2019-05-26T16:34:15.674Z,21.00
2019-05-26T16:36:45.418Z,21.00
2019-05-26T16:39:15.144Z,20.80
2019-05-26T16:41:44.805Z,20.80
2019-05-26T16:44:14.788Z,20.70
2019-05-26T16:46:55.916Z,20.60
2019-05-26T16:49:16.678Z,20.60
2019-05-26T16:51:46.471Z,20.50
2019-05-26T16:54:18.874Z,20.60
2019-05-26T16:56:48.751Z,20.50
2019-05-26T16:59:18.430Z,20.60
2019-05-26T17:01:49.116Z,20.60
2019-05-26T17:04:18.917Z,20.50
2019-05-26T17:06:48.611Z,20.50
2019-05-26T17:09:18.337Z,20.50
2019-05-26T17:11:48.061Z,20.60
2019-05-26T17:14:17.876Z,20.50
2019-05-26T17:16:47.859Z,20.60
2019-05-26T17:19:18.853Z,20.50
2019-05-26T17:21:48.615Z,20.60
2019-05-26T17:24:21.464Z,20.50
2019-05-26T17:26:51.236Z,20.40
2019-05-26T17:29:21.040Z,20.30
2019-05-26T17:31:50.739Z,20.20
2019-05-26T17:34:20.508Z,20.10
2019-05-26T17:36:50.197Z,19.90
2019-05-26T17:39:23.057Z,19.80
2019-05-26T17:41:52.763Z,19.70
2019-05-26T17:44:22.463Z,19.60
2019-05-26T17:46:52.279Z,19.50
2019-05-26T17:49:22.010Z,19.30
2019-05-26T17:51:51.911Z,19.20
2019-05-26T17:54:21.632Z,19.00
2019-05-26T17:56:51.434Z,18.90
2019-05-26T17:59:21.195Z,18.70
2019-05-26T18:01:51.567Z,18.50
2019-05-26T18:04:21.499Z,18.40
2019-05-26T18:06:51.212Z,18.30
2019-05-26T18:09:20.923Z,18.30
2019-05-26T18:11:50.749Z,18.20
2019-05-26T18:14:20.500Z,18.10
2019-05-26T18:16:50.182Z,18.00
2019-05-26T18:19:19.990Z,17.90
2019-05-26T18:21:52.251Z,17.70
2019-05-26T18:24:22.003Z,17.70
2019-05-26T18:26:51.744Z,17.50
2019-05-26T18:29:21.662Z,17.30
2019-05-26T18:31:51.446Z,17.20
2019-05-26T18:34:21.303Z,17.10
2019-05-26T18:36:51.094Z,17.00
2019-05-26T18:39:21.147Z,16.80
2019-05-26T18:41:50.883Z,16.70
2019-05-26T18:44:20.700Z,16.60
2019-05-26T18:46:53.498Z,16.50
2019-05-26T18:49:21.924Z,16.40
2019-05-26T18:51:51.615Z,16.30
2019-05-26T18:54:21.442Z,16.20
2019-05-26T18:56:51.151Z,16.10
2019-05-26T18:59:20.877Z,16.00
2019-05-26T19:01:50.555Z,15.90
2019-05-26T19:04:20.263Z,15.90
2019-05-26T19:06:49.972Z,15.80
2019-05-26T19:09:20.030Z,15.70
2019-05-26T19:11:49.856Z,15.70
2019-05-26T19:14:19.519Z,15.60
2019-05-26T19:16:49.552Z,15.50
2019-05-26T19:19:19.378Z,15.50
2019-05-26T19:21:49.167Z,15.40
2019-05-26T19:24:18.883Z,15.30
2019-05-26T19:26:48.664Z,15.30
2019-05-26T19:29:18.474Z,15.20
2019-05-26T19:31:48.259Z,15.20
2019-05-26T19:34:17.988Z,15.10
2019-05-26T19:36:47.696Z,15.10
2019-05-26T19:39:17.446Z,15.00
2019-05-26T19:41:47.967Z,15.00
2019-05-26T19:44:19.142Z,15.00
2019-05-26T19:46:52.680Z,14.90
2019-05-26T19:49:20.328Z,14.90
2019-05-26T19:51:50.415Z,14.80
2019-05-26T19:54:20.087Z,14.80
2019-05-26T19:56:52.561Z,14.80
2019-05-26T19:59:23.419Z,14.80
2019-05-26T20:01:53.114Z,14.80
2019-05-26T20:04:22.798Z,14.70
2019-05-26T20:06:52.666Z,14.70
2019-05-26T20:09:22.474Z,14.70
2019-05-26T20:11:52.552Z,14.70
2019-05-26T20:14:22.670Z,14.70
2019-05-26T20:16:52.394Z,14.70
2019-05-26T20:19:22.163Z,14.70
2019-05-26T20:21:51.828Z,14.70
2019-05-26T20:24:21.566Z,14.60
2019-05-26T20:26:51.236Z,14.60
2019-05-26T20:29:20.977Z,14.50
2019-05-26T20:31:50.693Z,14.50
2019-05-26T20:34:20.396Z,14.40
2019-05-26T20:36:50.262Z,14.30
2019-05-26T20:39:20.002Z,14.30
2019-05-26T20:41:49.707Z,14.20
2019-05-26T20:44:19.481Z,14.20
2019-05-26T20:46:49.188Z,14.20
2019-05-26T20:49:18.878Z,14.20
2019-05-26T20:51:48.630Z,14.10
2019-05-26T20:54:18.385Z,14.20
2019-05-26T20:56:48.131Z,14.10
2019-05-26T20:59:17.845Z,14.10
2019-05-26T21:01:47.535Z,14.10
2019-05-26T21:04:17.295Z,14.00
2019-05-26T21:06:47.052Z,14.00
2019-05-26T21:09:16.755Z,13.90
2019-05-26T21:11:46.481Z,13.90
2019-05-26T21:14:16.258Z,13.80
2019-05-26T21:16:45.965Z,13.70
2019-05-26T21:19:15.700Z,13.60
2019-05-26T21:21:45.403Z,13.50
2019-05-26T21:24:15.075Z,13.50
2019-05-26T21:26:44.813Z,13.50
2019-05-26T21:29:14.547Z,13.40
2019-05-26T21:31:44.305Z,13.40
2019-05-26T21:34:14.014Z,13.30
2019-05-26T21:36:43.771Z,13.30
2019-05-26T21:39:13.603Z,13.30
2019-05-26T21:41:43.323Z,13.20
2019-05-26T21:44:13.061Z,13.20
2019-05-26T21:46:42.767Z,13.10
2019-05-26T21:49:12.527Z,13.10
2019-05-26T21:51:42.240Z,13.00
2019-05-26T21:54:11.927Z,13.00
2019-05-26T21:56:41.647Z,13.00
2019-05-26T21:59:11.351Z,13.00
2019-05-26T22:01:41.059Z,13.00
2019-05-26T22:04:10.771Z,13.00
2019-05-26T22:06:40.522Z,13.00
2019-05-26T22:09:10.200Z,12.90
2019-05-26T22:11:42.011Z,12.90
2019-05-26T22:14:11.768Z,13.00
2019-05-26T22:16:41.499Z,12.90
2019-05-26T22:19:11.239Z,12.90
2019-05-26T22:21:41.017Z,12.90
2019-05-26T22:24:10.742Z,12.90
2019-05-26T22:26:40.848Z,12.90
2019-05-26T22:29:10.615Z,12.90
2019-05-26T22:31:40.324Z,12.90
2019-05-26T22:34:10.010Z,12.90
2019-05-26T22:36:39.725Z,12.80
2019-05-26T22:39:09.513Z,12.80
2019-05-26T22:41:39.270Z,12.80
2019-05-26T22:44:08.937Z,12.70
2019-05-26T22:46:38.750Z,12.70
2019-05-26T22:49:08.439Z,12.70
2019-05-26T22:51:38.150Z,12.70
2019-05-26T22:54:07.894Z,12.70
2019-05-26T22:56:37.622Z,12.70
2019-05-26T22:59:07.328Z,12.60
2019-05-26T23:01:37.074Z,12.60
2019-05-26T23:04:06.769Z,12.70
2019-05-26T23:06:36.492Z,12.80
2019-05-26T23:09:06.972Z,12.90
2019-05-26T23:11:36.724Z,13.00
2019-05-26T23:14:06.447Z,13.00
2019-05-26T23:16:36.242Z,13.10
2019-05-26T23:19:18.957Z,13.20
2019-05-26T23:21:37.574Z,13.30
2019-05-26T23:24:07.326Z,13.40
2019-05-26T23:26:37.042Z,13.60
2019-05-26T23:29:06.745Z,13.60
2019-05-26T23:31:36.432Z,13.70
2019-05-26T23:34:06.159Z,13.80
2019-05-26T23:36:35.867Z,13.80
2019-05-26T23:39:06.718Z,13.80
2019-05-26T23:41:36.391Z,13.80
2019-05-26T23:44:06.068Z,13.90
2019-05-26T23:46:35.812Z,14.00
2019-05-26T23:49:05.504Z,14.10
2019-05-26T23:51:35.191Z,14.10
2019-05-26T23:54:07.943Z,14.20
2019-05-26T23:56:37.639Z,14.20
2019-05-26T23:59:07.372Z,14.30
